sensor_id;sensor_type;location;lat;lon;timestamp;P1;durP1;ratioP1;P2;durP2;ratioP2
6093;SDS011;19964;42.060;24.700;2023-04-24T00:01:44;11.60;;;9.73;;
6093;SDS011;19964;42.060;24.700;2023-04-24T00:04:12;12.13;;;9.97;;
6093;SDS011;19964;42.060;24.700;2023-04-24T00:06:41;11.23;;;10.13;;
6093;SDS011;19964;42.060;24.700;2023-04-24T00:09:08;11.10;;;10.00;;
6093;SDS011;19964;42.060;24.700;2023-04-24T00:11:36;11.07;;;10.10;;
6093;SDS011;19964;42.060;24.700;2023-04-24T00:14:03;11.87;;;10.57;;
6093;SDS011;19964;42.060;24.700;2023-04-24T00:16:30;12.70;;;10.90;;
6093;SDS011;19964;42.060;24.700;2023-04-24T00:18:56;11.33;;;10.33;;
6093;SDS011;19964;42.060;24.700;2023-04-24T00:21:25;11.47;;;10.20;;
6093;SDS011;19964;42.060;24.700;2023-04-24T00:23:52;12.23;;;10.60;;
6093;SDS011;19964;42.060;24.700;2023-04-24T00:26:19;12.13;;;10.83;;
6093;SDS011;19964;42.060;24.700;2023-04-24T00:28:45;12.77;;;11.53;;
6093;SDS011;19964;42.060;24.700;2023-04-24T00:31:12;12.23;;;10.97;;
6093;SDS011;19964;42.060;24.700;2023-04-24T00:33:39;14.13;;;12.53;;
6093;SDS011;19964;42.060;24.700;2023-04-24T00:36:06;11.80;;;10.70;;
6093;SDS011;19964;42.060;24.700;2023-04-24T00:38:34;14.30;;;11.73;;
6093;SDS011;19964;42.060;24.700;2023-04-24T00:41:01;12.97;;;11.37;;
6093;SDS011;19964;42.060;24.700;2023-04-24T00:43:28;14.97;;;11.87;;
6093;SDS011;19964;42.060;24.700;2023-04-24T00:45:55;12.93;;;11.53;;
6093;SDS011;19964;42.060;24.700;2023-04-24T00:48:21;18.80;;;12.07;;
6093;SDS011;19964;42.060;24.700;2023-04-24T00:50:50;12.57;;;11.27;;
6093;SDS011;19964;42.060;24.700;2023-04-24T00:53:17;12.67;;;10.93;;
6093;SDS011;19964;42.060;24.700;2023-04-24T00:55:45;11.47;;;10.30;;
6093;SDS011;19964;42.060;24.700;2023-04-24T00:58:12;11.70;;;10.20;;
6093;SDS011;19964;42.060;24.700;2023-04-24T01:00:39;12.20;;;11.00;;
6093;SDS011;19964;42.060;24.700;2023-04-24T01:03:07;13.27;;;11.57;;
6093;SDS011;19964;42.060;24.700;2023-04-24T01:05:34;10.87;;;9.97;;
6093;SDS011;19964;42.060;24.700;2023-04-24T01:08:01;12.20;;;10.63;;
6093;SDS011;19964;42.060;24.700;2023-04-24T01:10:29;12.83;;;10.70;;
6093;SDS011;19964;42.060;24.700;2023-04-24T01:12:59;15.47;;;11.60;;
6093;SDS011;19964;42.060;24.700;2023-04-24T01:15:25;14.63;;;11.20;;
6093;SDS011;19964;42.060;24.700;2023-04-24T01:17:52;11.90;;;10.70;;
6093;SDS011;19964;42.060;24.700;2023-04-24T01:20:19;13.93;;;11.47;;
6093;SDS011;19964;42.060;24.700;2023-04-24T01:22:48;16.93;;;11.50;;
6093;SDS011;19964;42.060;24.700;2023-04-24T01:25:15;16.73;;;11.03;;
6093;SDS011;19964;42.060;24.700;2023-04-24T01:27:41;11.60;;;10.40;;
6093;SDS011;19964;42.060;24.700;2023-04-24T01:30:09;13.30;;;11.10;;
6093;SDS011;19964;42.060;24.700;2023-04-24T01:32:37;12.77;;;11.27;;
6093;SDS011;19964;42.060;24.700;2023-04-24T01:35:05;13.47;;;11.73;;
6093;SDS011;19964;42.060;24.700;2023-04-24T01:37:33;13.87;;;12.47;;
6093;SDS011;19964;42.060;24.700;2023-04-24T01:40:03;14.47;;;12.97;;
6093;SDS011;19964;42.060;24.700;2023-04-24T01:42:31;16.23;;;12.57;;
6093;SDS011;19964;42.060;24.700;2023-04-24T01:44:58;14.20;;;12.70;;
6093;SDS011;19964;42.060;24.700;2023-04-24T01:47:26;13.20;;;12.00;;
6093;SDS011;19964;42.060;24.700;2023-04-24T01:49:53;13.43;;;12.03;;
6093;SDS011;19964;42.060;24.700;2023-04-24T01:52:20;13.47;;;11.87;;
6093;SDS011;19964;42.060;24.700;2023-04-24T01:54:46;15.63;;;12.73;;
6093;SDS011;19964;42.060;24.700;2023-04-24T01:57:15;20.30;;;12.50;;
6093;SDS011;19964;42.060;24.700;2023-04-24T01:59:42;14.07;;;12.53;;
6093;SDS011;19964;42.060;24.700;2023-04-24T02:02:09;15.37;;;11.43;;
6093;SDS011;19964;42.060;24.700;2023-04-24T02:04:36;13.50;;;11.87;;
6093;SDS011;19964;42.060;24.700;2023-04-24T02:07:03;14.07;;;12.03;;
6093;SDS011;19964;42.060;24.700;2023-04-24T02:09:30;13.53;;;12.03;;
6093;SDS011;19964;42.060;24.700;2023-04-24T02:11:56;14.90;;;12.40;;
6093;SDS011;19964;42.060;24.700;2023-04-24T02:14:25;15.47;;;12.37;;
6093;SDS011;19964;42.060;24.700;2023-04-24T02:16:51;13.17;;;11.87;;
6093;SDS011;19964;42.060;24.700;2023-04-24T02:19:19;16.27;;;12.40;;
6093;SDS011;19964;42.060;24.700;2023-04-24T02:21:46;12.97;;;11.60;;
6093;SDS011;19964;42.060;24.700;2023-04-24T02:24:13;13.90;;;11.93;;
6093;SDS011;19964;42.060;24.700;2023-04-24T02:26:41;13.83;;;12.43;;
6093;SDS011;19964;42.060;24.700;2023-04-24T02:29:07;14.47;;;12.37;;
6093;SDS011;19964;42.060;24.700;2023-04-24T02:31:36;14.07;;;12.23;;
6093;SDS011;19964;42.060;24.700;2023-04-24T02:34:02;14.23;;;12.07;;
6093;SDS011;19964;42.060;24.700;2023-04-24T02:36:29;14.17;;;11.77;;
6093;SDS011;19964;42.060;24.700;2023-04-24T02:38:56;13.07;;;11.77;;
6093;SDS011;19964;42.060;24.700;2023-04-24T02:41:23;13.27;;;11.57;;
6093;SDS011;19964;42.060;24.700;2023-04-24T02:43:50;13.73;;;12.37;;
6093;SDS011;19964;42.060;24.700;2023-04-24T02:46:16;16.17;;;11.93;;
6093;SDS011;19964;42.060;24.700;2023-04-24T02:48:45;15.63;;;13.00;;
6093;SDS011;19964;42.060;24.700;2023-04-24T02:51:11;19.00;;;13.03;;
6093;SDS011;19964;42.060;24.700;2023-04-24T02:53:38;15.73;;;13.40;;
6093;SDS011;19964;42.060;24.700;2023-04-24T02:56:05;17.80;;;13.53;;
6093;SDS011;19964;42.060;24.700;2023-04-24T02:58:32;16.70;;;13.70;;
6093;SDS011;19964;42.060;24.700;2023-04-24T03:00:59;16.00;;;12.73;;
6093;SDS011;19964;42.060;24.700;2023-04-24T03:03:25;15.20;;;12.43;;
6093;SDS011;19964;42.060;24.700;2023-04-24T03:05:54;15.87;;;13.27;;
6093;SDS011;19964;42.060;24.700;2023-04-24T03:08:20;15.77;;;13.23;;
6093;SDS011;19964;42.060;24.700;2023-04-24T03:10:47;16.00;;;13.40;;
6093;SDS011;19964;42.060;24.700;2023-04-24T03:13:14;17.20;;;13.50;;
6093;SDS011;19964;42.060;24.700;2023-04-24T03:15:42;14.40;;;12.90;;
6093;SDS011;19964;42.060;24.700;2023-04-24T03:18:08;16.70;;;14.03;;
6093;SDS011;19964;42.060;24.700;2023-04-24T03:20:35;17.50;;;13.77;;
6093;SDS011;19964;42.060;24.700;2023-04-24T03:23:04;18.90;;;14.50;;
6093;SDS011;19964;42.060;24.700;2023-04-24T03:25:31;18.07;;;13.97;;
6093;SDS011;19964;42.060;24.700;2023-04-24T03:27:58;17.70;;;13.67;;
6093;SDS011;19964;42.060;24.700;2023-04-24T03:30:24;19.00;;;15.37;;
6093;SDS011;19964;42.060;24.700;2023-04-24T03:32:51;19.27;;;14.77;;
6093;SDS011;19964;42.060;24.700;2023-04-24T03:35:18;16.43;;;13.30;;
6093;SDS011;19964;42.060;24.700;2023-04-24T03:37:46;15.57;;;13.90;;
6093;SDS011;19964;42.060;24.700;2023-04-24T03:40:14;16.57;;;14.40;;
6093;SDS011;19964;42.060;24.700;2023-04-24T03:42:41;17.13;;;14.07;;
6093;SDS011;19964;42.060;24.700;2023-04-24T03:45:08;18.87;;;14.20;;
6093;SDS011;19964;42.060;24.700;2023-04-24T03:47:36;18.57;;;14.27;;
6093;SDS011;19964;42.060;24.700;2023-04-24T03:50:03;17.03;;;13.30;;
6093;SDS011;19964;42.060;24.700;2023-04-24T03:52:30;18.50;;;13.37;;
6093;SDS011;19964;42.060;24.700;2023-04-24T03:54:57;15.87;;;12.73;;
6093;SDS011;19964;42.060;24.700;2023-04-24T03:57:25;13.70;;;12.37;;
6093;SDS011;19964;42.060;24.700;2023-04-24T03:59:52;15.00;;;12.50;;
6093;SDS011;19964;42.060;24.700;2023-04-24T04:02:19;13.67;;;12.27;;
6093;SDS011;19964;42.060;24.700;2023-04-24T04:04:45;13.10;;;11.80;;
6093;SDS011;19964;42.060;24.700;2023-04-24T04:07:12;13.30;;;12.00;;
6093;SDS011;19964;42.060;24.700;2023-04-24T04:09:39;13.97;;;12.57;;
6093;SDS011;19964;42.060;24.700;2023-04-24T04:12:06;15.53;;;13.37;;
6093;SDS011;19964;42.060;24.700;2023-04-24T04:14:34;12.93;;;11.63;;
6093;SDS011;19964;42.060;24.700;2023-04-24T04:17:01;12.83;;;11.63;;
6093;SDS011;19964;42.060;24.700;2023-04-24T04:19:27;12.43;;;11.23;;
6093;SDS011;19964;42.060;24.700;2023-04-24T04:21:54;17.97;;;15.30;;
6093;SDS011;19964;42.060;24.700;2023-04-24T04:24:21;17.30;;;14.70;;
6093;SDS011;19964;42.060;24.700;2023-04-24T04:26:49;19.00;;;16.07;;
6093;SDS011;19964;42.060;24.700;2023-04-24T04:29:16;14.53;;;13.00;;
6093;SDS011;19964;42.060;24.700;2023-04-24T04:31:44;16.70;;;13.30;;
6093;SDS011;19964;42.060;24.700;2023-04-24T04:34:11;12.40;;;11.00;;
6093;SDS011;19964;42.060;24.700;2023-04-24T04:36:39;17.07;;;14.20;;
6093;SDS011;19964;42.060;24.700;2023-04-24T04:39:06;16.93;;;13.63;;
6093;SDS011;19964;42.060;24.700;2023-04-24T04:41:33;14.33;;;12.57;;
6093;SDS011;19964;42.060;24.700;2023-04-24T04:44:00;14.47;;;12.60;;
6093;SDS011;19964;42.060;24.700;2023-04-24T04:46:29;14.57;;;12.50;;
6093;SDS011;19964;42.060;24.700;2023-04-24T04:49:00;14.40;;;12.60;;
6093;SDS011;19964;42.060;24.700;2023-04-24T04:51:27;15.63;;;13.40;;
6093;SDS011;19964;42.060;24.700;2023-04-24T04:53:55;13.93;;;12.47;;
6093;SDS011;19964;42.060;24.700;2023-04-24T04:56:21;20.63;;;13.20;;
6093;SDS011;19964;42.060;24.700;2023-04-24T04:58:48;14.70;;;13.20;;
6093;SDS011;19964;42.060;24.700;2023-04-24T05:01:15;18.37;;;13.37;;
6093;SDS011;19964;42.060;24.700;2023-04-24T05:03:42;18.93;;;12.80;;
6093;SDS011;19964;42.060;24.700;2023-04-24T05:06:10;16.50;;;13.93;;
6093;SDS011;19964;42.060;24.700;2023-04-24T05:08:37;19.83;;;13.37;;
6093;SDS011;19964;42.060;24.700;2023-04-24T05:11:04;15.03;;;13.43;;
6093;SDS011;19964;42.060;24.700;2023-04-24T05:13:31;20.83;;;13.60;;
6093;SDS011;19964;42.060;24.700;2023-04-24T05:15:58;18.43;;;14.00;;
6093;SDS011;19964;42.060;24.700;2023-04-24T05:18:24;16.60;;;13.83;;
6093;SDS011;19964;42.060;24.700;2023-04-24T05:20:51;18.33;;;13.80;;
6093;SDS011;19964;42.060;24.700;2023-04-24T05:23:19;15.77;;;13.13;;
6093;SDS011;19964;42.060;24.700;2023-04-24T05:25:46;15.80;;;13.37;;
6093;SDS011;19964;42.060;24.700;2023-04-24T05:28:13;17.60;;;13.20;;
6093;SDS011;19964;42.060;24.700;2023-04-24T05:30:40;16.13;;;12.77;;
6093;SDS011;19964;42.060;24.700;2023-04-24T05:33:07;20.63;;;14.10;;
6093;SDS011;19964;42.060;24.700;2023-04-24T05:35:34;21.13;;;14.87;;
6093;SDS011;19964;42.060;24.700;2023-04-24T05:38:01;15.60;;;14.00;;
6093;SDS011;19964;42.060;24.700;2023-04-24T05:40:29;16.43;;;14.27;;
6093;SDS011;19964;42.060;24.700;2023-04-24T05:42:56;18.10;;;14.37;;
6093;SDS011;19964;42.060;24.700;2023-04-24T05:45:23;17.30;;;14.37;;
6093;SDS011;19964;42.060;24.700;2023-04-24T05:47:50;19.47;;;15.73;;
6093;SDS011;19964;42.060;24.700;2023-04-24T05:50:17;18.80;;;15.10;;
6093;SDS011;19964;42.060;24.700;2023-04-24T05:52:44;23.80;;;15.97;;
6093;SDS011;19964;42.060;24.700;2023-04-24T05:55:11;30.23;;;20.70;;
6093;SDS011;19964;42.060;24.700;2023-04-24T05:57:39;23.60;;;16.50;;
6093;SDS011;19964;42.060;24.700;2023-04-24T06:00:07;21.90;;;17.27;;
6093;SDS011;19964;42.060;24.700;2023-04-24T06:02:37;49.53;;;26.77;;
6093;SDS011;19964;42.060;24.700;2023-04-24T06:05:04;24.00;;;17.60;;
6093;SDS011;19964;42.060;24.700;2023-04-24T06:07:30;24.67;;;18.37;;
6093;SDS011;19964;42.060;24.700;2023-04-24T06:09:57;27.60;;;17.13;;
6093;SDS011;19964;42.060;24.700;2023-04-24T06:12:24;21.23;;;16.53;;
6093;SDS011;19964;42.060;24.700;2023-04-24T06:14:52;25.57;;;15.73;;
6093;SDS011;19964;42.060;24.700;2023-04-24T06:17:20;20.50;;;15.47;;
6093;SDS011;19964;42.060;24.700;2023-04-24T06:19:47;19.60;;;14.53;;
6093;SDS011;19964;42.060;24.700;2023-04-24T06:22:14;18.83;;;14.17;;
6093;SDS011;19964;42.060;24.700;2023-04-24T06:24:40;27.87;;;15.40;;
6093;SDS011;19964;42.060;24.700;2023-04-24T06:27:07;19.50;;;15.00;;
6093;SDS011;19964;42.060;24.700;2023-04-24T06:29:34;28.73;;;14.07;;
6093;SDS011;19964;42.060;24.700;2023-04-24T06:32:03;15.60;;;14.00;;
6093;SDS011;19964;42.060;24.700;2023-04-24T06:34:29;17.30;;;13.03;;
6093;SDS011;19964;42.060;24.700;2023-04-24T06:36:57;15.03;;;13.30;;
6093;SDS011;19964;42.060;24.700;2023-04-24T06:39:24;20.10;;;13.27;;
6093;SDS011;19964;42.060;24.700;2023-04-24T06:41:51;15.73;;;13.57;;
6093;SDS011;19964;42.060;24.700;2023-04-24T06:44:18;16.57;;;13.83;;
6093;SDS011;19964;42.060;24.700;2023-04-24T06:46:44;14.53;;;13.03;;
6093;SDS011;19964;42.060;24.700;2023-04-24T06:49:13;15.73;;;13.20;;
6093;SDS011;19964;42.060;24.700;2023-04-24T06:51:41;20.37;;;13.20;;
6093;SDS011;19964;42.060;24.700;2023-04-24T06:54:07;14.63;;;13.17;;
6093;SDS011;19964;42.060;24.700;2023-04-24T06:56:34;18.83;;;13.27;;
6093;SDS011;19964;42.060;24.700;2023-04-24T06:59:01;17.37;;;13.87;;
6093;SDS011;19964;42.060;24.700;2023-04-24T07:01:28;13.70;;;12.30;;
6093;SDS011;19964;42.060;24.700;2023-04-24T07:03:54;16.17;;;13.03;;
6093;SDS011;19964;42.060;24.700;2023-04-24T07:06:22;20.60;;;13.57;;
6093;SDS011;19964;42.060;24.700;2023-04-24T07:08:49;15.10;;;13.47;;
6093;SDS011;19964;42.060;24.700;2023-04-24T07:11:16;16.73;;;13.40;;
6093;SDS011;19964;42.060;24.700;2023-04-24T07:13:43;16.40;;;12.47;;
6093;SDS011;19964;42.060;24.700;2023-04-24T07:16:09;16.37;;;12.67;;
6093;SDS011;19964;42.060;24.700;2023-04-24T07:18:36;33.63;;;19.53;;
6093;SDS011;19964;42.060;24.700;2023-04-24T07:21:04;25.93;;;15.13;;
6093;SDS011;19964;42.060;24.700;2023-04-24T07:23:32;20.40;;;16.03;;
6093;SDS011;19964;42.060;24.700;2023-04-24T07:25:59;24.27;;;17.67;;
6093;SDS011;19964;42.060;24.700;2023-04-24T07:28:26;54.87;;;28.90;;
6093;SDS011;19964;42.060;24.700;2023-04-24T07:30:56;15.67;;;12.03;;
6093;SDS011;19964;42.060;24.700;2023-04-24T07:33:23;15.10;;;12.63;;
6093;SDS011;19964;42.060;24.700;2023-04-24T07:35:50;20.83;;;14.93;;
6093;SDS011;19964;42.060;24.700;2023-04-24T07:38:17;15.57;;;12.53;;
6093;SDS011;19964;42.060;24.700;2023-04-24T07:40:47;15.07;;;12.83;;
6093;SDS011;19964;42.060;24.700;2023-04-24T07:43:14;20.00;;;13.37;;
6093;SDS011;19964;42.060;24.700;2023-04-24T07:45:41;18.63;;;13.83;;
6093;SDS011;19964;42.060;24.700;2023-04-24T07:48:07;14.80;;;13.13;;
6093;SDS011;19964;42.060;24.700;2023-04-24T07:50:35;16.57;;;12.73;;
6093;SDS011;19964;42.060;24.700;2023-04-24T07:53:02;16.80;;;13.83;;
6093;SDS011;19964;42.060;24.700;2023-04-24T07:55:29;17.67;;;13.83;;
6093;SDS011;19964;42.060;24.700;2023-04-24T07:57:57;16.37;;;13.47;;
6093;SDS011;19964;42.060;24.700;2023-04-24T08:00:24;18.13;;;13.33;;
6093;SDS011;19964;42.060;24.700;2023-04-24T08:02:50;16.90;;;13.40;;
6093;SDS011;19964;42.060;24.700;2023-04-24T08:05:17;17.53;;;14.43;;
6093;SDS011;19964;42.060;24.700;2023-04-24T08:07:45;15.63;;;13.87;;
6093;SDS011;19964;42.060;24.700;2023-04-24T08:10:13;21.37;;;14.67;;
6093;SDS011;19964;42.060;24.700;2023-04-24T08:12:41;16.17;;;13.83;;
6093;SDS011;19964;42.060;24.700;2023-04-24T08:15:09;26.07;;;13.87;;
6093;SDS011;19964;42.060;24.700;2023-04-24T08:17:36;16.97;;;13.50;;
6093;SDS011;19964;42.060;24.700;2023-04-24T08:20:03;18.50;;;13.57;;
6093;SDS011;19964;42.060;24.700;2023-04-24T08:22:35;18.30;;;13.53;;
6093;SDS011;19964;42.060;24.700;2023-04-24T08:25:02;15.70;;;13.00;;
6093;SDS011;19964;42.060;24.700;2023-04-24T08:27:29;20.53;;;13.77;;
6093;SDS011;19964;42.060;24.700;2023-04-24T08:29:56;17.80;;;12.57;;
6093;SDS011;19964;42.060;24.700;2023-04-24T08:32:24;15.00;;;13.03;;
6093;SDS011;19964;42.060;24.700;2023-04-24T08:34:52;15.00;;;12.60;;
6093;SDS011;19964;42.060;24.700;2023-04-24T08:37:21;15.40;;;13.07;;
6093;SDS011;19964;42.060;24.700;2023-04-24T08:39:48;13.63;;;11.83;;
6093;SDS011;19964;42.060;24.700;2023-04-24T08:42:15;17.37;;;12.97;;
6093;SDS011;19964;42.060;24.700;2023-04-24T08:44:45;14.10;;;12.63;;
6093;SDS011;19964;42.060;24.700;2023-04-24T08:47:12;17.87;;;12.77;;
6093;SDS011;19964;42.060;24.700;2023-04-24T08:49:40;21.23;;;12.37;;
6093;SDS011;19964;42.060;24.700;2023-04-24T08:52:07;16.20;;;13.07;;
6093;SDS011;19964;42.060;24.700;2023-04-24T08:54:34;15.77;;;12.33;;
6093;SDS011;19964;42.060;24.700;2023-04-24T08:57:02;13.83;;;12.37;;
6093;SDS011;19964;42.060;24.700;2023-04-24T08:59:29;19.43;;;13.70;;
6093;SDS011;19964;42.060;24.700;2023-04-24T09:01:57;19.43;;;13.20;;
6093;SDS011;19964;42.060;24.700;2023-04-24T09:04:24;18.13;;;12.63;;
6093;SDS011;19964;42.060;24.700;2023-04-24T09:06:53;14.03;;;11.83;;
6093;SDS011;19964;42.060;24.700;2023-04-24T09:09:23;12.87;;;10.97;;
6093;SDS011;19964;42.060;24.700;2023-04-24T09:11:50;16.23;;;12.10;;
6093;SDS011;19964;42.060;24.700;2023-04-24T09:14:20;16.20;;;12.93;;
6093;SDS011;19964;42.060;24.700;2023-04-24T09:16:48;13.10;;;11.20;;
6093;SDS011;19964;42.060;24.700;2023-04-24T09:19:15;15.57;;;11.40;;
6093;SDS011;19964;42.060;24.700;2023-04-24T09:21:45;15.40;;;13.03;;
6093;SDS011;19964;42.060;24.700;2023-04-24T09:24:16;15.70;;;10.93;;
6093;SDS011;19964;42.060;24.700;2023-04-24T09:26:45;14.50;;;11.03;;
6093;SDS011;19964;42.060;24.700;2023-04-24T09:29:15;12.37;;;10.43;;
6093;SDS011;19964;42.060;24.700;2023-04-24T09:31:43;15.13;;;9.83;;
6093;SDS011;19964;42.060;24.700;2023-04-24T09:34:11;11.57;;;10.47;;
6093;SDS011;19964;42.060;24.700;2023-04-24T09:36:39;11.30;;;10.10;;
6093;SDS011;19964;42.060;24.700;2023-04-24T09:39:07;11.10;;;10.00;;
6093;SDS011;19964;42.060;24.700;2023-04-24T09:41:38;10.70;;;9.70;;
6093;SDS011;19964;42.060;24.700;2023-04-24T09:44:11;11.63;;;10.43;;
6093;SDS011;19964;42.060;24.700;2023-04-24T09:46:40;11.50;;;10.30;;
6093;SDS011;19964;42.060;24.700;2023-04-24T09:49:08;12.73;;;10.27;;
6093;SDS011;19964;42.060;24.700;2023-04-24T09:51:37;11.83;;;10.60;;
6093;SDS011;19964;42.060;24.700;2023-04-24T09:54:07;13.40;;;10.70;;
6093;SDS011;19964;42.060;24.700;2023-04-24T09:56:45;12.67;;;11.57;;
6093;SDS011;19964;42.060;24.700;2023-04-24T09:59:13;16.43;;;11.90;;
6093;SDS011;19964;42.060;24.700;2023-04-24T10:01:40;13.03;;;10.87;;
6093;SDS011;19964;42.060;24.700;2023-04-24T10:04:16;16.40;;;11.27;;
6093;SDS011;19964;42.060;24.700;2023-04-24T10:06:44;13.73;;;10.47;;
6093;SDS011;19964;42.060;24.700;2023-04-24T10:09:11;13.07;;;10.57;;
6093;SDS011;19964;42.060;24.700;2023-04-24T10:11:41;10.70;;;9.60;;
6093;SDS011;19964;42.060;24.700;2023-04-24T10:14:10;14.10;;;10.80;;
6093;SDS011;19964;42.060;24.700;2023-04-24T10:16:39;13.20;;;10.57;;
6093;SDS011;19964;42.060;24.700;2023-04-24T10:19:06;14.63;;;10.20;;
6093;SDS011;19964;42.060;24.700;2023-04-24T10:21:34;16.60;;;11.07;;
6093;SDS011;19964;42.060;24.700;2023-04-24T10:24:02;11.63;;;9.97;;
6093;SDS011;19964;42.060;24.700;2023-04-24T10:26:32;12.23;;;10.90;;
6093;SDS011;19964;42.060;24.700;2023-04-24T10:29:00;14.83;;;11.33;;
6093;SDS011;19964;42.060;24.700;2023-04-24T10:31:28;13.43;;;10.70;;
6093;SDS011;19964;42.060;24.700;2023-04-24T10:33:58;11.13;;;10.23;;
6093;SDS011;19964;42.060;24.700;2023-04-24T10:36:27;12.50;;;11.13;;
6093;SDS011;19964;42.060;24.700;2023-04-24T10:38:57;14.53;;;10.10;;
6093;SDS011;19964;42.060;24.700;2023-04-24T10:41:26;11.40;;;10.27;;
6093;SDS011;19964;42.060;24.700;2023-04-24T10:44:03;17.07;;;10.80;;
6093;SDS011;19964;42.060;24.700;2023-04-24T10:46:32;17.53;;;10.40;;
6093;SDS011;19964;42.060;24.700;2023-04-24T10:48:59;10.23;;;9.20;;
6093;SDS011;19964;42.060;24.700;2023-04-24T10:51:44;10.47;;;9.40;;
6093;SDS011;19964;42.060;24.700;2023-04-24T11:00:09;10.33;;;9.30;;
6093;SDS011;19964;42.060;24.700;2023-04-24T11:02:41;11.33;;;10.20;;
6093;SDS011;19964;42.060;24.700;2023-04-24T11:05:14;14.47;;;9.87;;
6093;SDS011;19964;42.060;24.700;2023-04-24T11:10:37;14.30;;;9.67;;
6093;SDS011;19964;42.060;24.700;2023-04-24T11:13:10;10.70;;;9.63;;
6093;SDS011;19964;42.060;24.700;2023-04-24T11:15:37;10.67;;;9.57;;
6093;SDS011;19964;42.060;24.700;2023-04-24T11:18:05;13.20;;;9.67;;
6093;SDS011;19964;42.060;24.700;2023-04-24T11:20:32;9.63;;;8.73;;
6093;SDS011;19964;42.060;24.700;2023-04-24T11:23:03;9.93;;;8.93;;
6093;SDS011;19964;42.060;24.700;2023-04-24T11:25:32;10.80;;;9.80;;
6093;SDS011;19964;42.060;24.700;2023-04-24T11:28:02;10.87;;;9.87;;
6093;SDS011;19964;42.060;24.700;2023-04-24T11:30:31;11.37;;;10.23;;
6093;SDS011;19964;42.060;24.700;2023-04-24T11:33:01;11.07;;;9.80;;
6093;SDS011;19964;42.060;24.700;2023-04-24T11:35:31;13.60;;;9.20;;
6093;SDS011;19964;42.060;24.700;2023-04-24T11:38:03;9.90;;;9.00;;
6093;SDS011;19964;42.060;24.700;2023-04-24T11:40:30;11.63;;;9.03;;
6093;SDS011;19964;42.060;24.700;2023-04-24T11:42:59;10.77;;;9.77;;
6093;SDS011;19964;42.060;24.700;2023-04-24T11:45:27;12.70;;;9.33;;
6093;SDS011;19964;42.060;24.700;2023-04-24T11:47:54;12.37;;;9.63;;
6093;SDS011;19964;42.060;24.700;2023-04-24T11:50:21;10.63;;;9.53;;
6093;SDS011;19964;42.060;24.700;2023-04-24T11:52:52;10.03;;;8.80;;
6093;SDS011;19964;42.060;24.700;2023-04-24T11:55:26;10.17;;;9.13;;
6093;SDS011;19964;42.060;24.700;2023-04-24T11:57:54;12.27;;;9.70;;
6093;SDS011;19964;42.060;24.700;2023-04-24T12:00:23;10.27;;;9.23;;
6093;SDS011;19964;42.060;24.700;2023-04-24T12:03:03;9.63;;;8.77;;
6093;SDS011;19964;42.060;24.700;2023-04-24T12:05:32;11.30;;;8.50;;
6093;SDS011;19964;42.060;24.700;2023-04-24T12:08:00;10.70;;;8.30;;
6093;SDS011;19964;42.060;24.700;2023-04-24T12:10:28;10.27;;;9.00;;
6093;SDS011;19964;42.060;24.700;2023-04-24T12:12:56;9.90;;;8.90;;
6093;SDS011;19964;42.060;24.700;2023-04-24T12:15:24;8.97;;;8.20;;
6093;SDS011;19964;42.060;24.700;2023-04-24T12:17:51;9.50;;;8.60;;
6093;SDS011;19964;42.060;24.700;2023-04-24T12:20:23;9.67;;;8.77;;
6093;SDS011;19964;42.060;24.700;2023-04-24T12:22:51;10.70;;;9.03;;
6093;SDS011;19964;42.060;24.700;2023-04-24T12:25:24;9.57;;;8.60;;
6093;SDS011;19964;42.060;24.700;2023-04-24T12:27:52;9.20;;;8.20;;
6093;SDS011;19964;42.060;24.700;2023-04-24T12:30:20;9.30;;;8.20;;
6093;SDS011;19964;42.060;24.700;2023-04-24T12:32:48;9.10;;;8.20;;
6093;SDS011;19964;42.060;24.700;2023-04-24T12:35:18;10.07;;;7.90;;
6093;SDS011;19964;42.060;24.700;2023-04-24T12:37:46;9.93;;;7.87;;
6093;SDS011;19964;42.060;24.700;2023-04-24T12:40:13;9.70;;;8.73;;
6093;SDS011;19964;42.060;24.700;2023-04-24T12:42:43;8.93;;;8.20;;
6093;SDS011;19964;42.060;24.700;2023-04-24T12:45:11;10.07;;;7.87;;
6093;SDS011;19964;42.060;24.700;2023-04-24T12:47:39;9.37;;;8.57;;
6093;SDS011;19964;42.060;24.700;2023-04-24T12:50:07;9.77;;;8.70;;
6093;SDS011;19964;42.060;24.700;2023-04-24T12:52:34;9.47;;;8.17;;
6093;SDS011;19964;42.060;24.700;2023-04-24T12:55:01;9.77;;;8.87;;
6093;SDS011;19964;42.060;24.700;2023-04-24T12:57:30;9.07;;;7.80;;
6093;SDS011;19964;42.060;24.700;2023-04-24T12:59:58;8.90;;;8.10;;
6093;SDS011;19964;42.060;24.700;2023-04-24T13:02:26;8.20;;;7.40;;
6093;SDS011;19964;42.060;24.700;2023-04-24T13:04:55;9.77;;;8.27;;
6093;SDS011;19964;42.060;24.700;2023-04-24T13:07:22;8.17;;;7.37;;
6093;SDS011;19964;42.060;24.700;2023-04-24T13:09:49;14.03;;;10.87;;
6093;SDS011;19964;42.060;24.700;2023-04-24T13:12:16;10.53;;;9.50;;
6093;SDS011;19964;42.060;24.700;2023-04-24T13:14:44;9.77;;;8.90;;
6093;SDS011;19964;42.060;24.700;2023-04-24T13:20:29;8.33;;;7.60;;
6093;SDS011;19964;42.060;24.700;2023-04-24T13:22:56;7.83;;;7.13;;
6093;SDS011;19964;42.060;24.700;2023-04-24T13:25:23;8.23;;;7.43;;
6093;SDS011;19964;42.060;24.700;2023-04-24T13:27:50;8.17;;;7.33;;
6093;SDS011;19964;42.060;24.700;2023-04-24T13:30:17;7.57;;;6.97;;
6093;SDS011;19964;42.060;24.700;2023-04-24T13:32:44;8.70;;;7.10;;
6093;SDS011;19964;42.060;24.700;2023-04-24T13:35:11;8.90;;;7.70;;
6093;SDS011;19964;42.060;24.700;2023-04-24T13:37:39;8.23;;;7.43;;
6093;SDS011;19964;42.060;24.700;2023-04-24T13:40:06;7.60;;;7.00;;
6093;SDS011;19964;42.060;24.700;2023-04-24T13:42:34;6.60;;;6.10;;
6093;SDS011;19964;42.060;24.700;2023-04-24T13:45:00;6.77;;;6.13;;
6093;SDS011;19964;42.060;24.700;2023-04-24T13:47:28;7.10;;;6.40;;
6093;SDS011;19964;42.060;24.700;2023-04-24T13:49:55;6.30;;;5.80;;
6093;SDS011;19964;42.060;24.700;2023-04-24T13:52:22;7.00;;;6.37;;
6093;SDS011;19964;42.060;24.700;2023-04-24T13:54:50;7.00;;;6.33;;
6093;SDS011;19964;42.060;24.700;2023-04-24T13:57:16;8.23;;;6.33;;
6093;SDS011;19964;42.060;24.700;2023-04-24T13:59:43;8.40;;;6.53;;
6093;SDS011;19964;42.060;24.700;2023-04-24T14:02:10;7.20;;;6.40;;
6093;SDS011;19964;42.060;24.700;2023-04-24T14:04:37;7.00;;;6.40;;
6093;SDS011;19964;42.060;24.700;2023-04-24T14:07:04;7.37;;;6.73;;
6093;SDS011;19964;42.060;24.700;2023-04-24T14:09:31;7.80;;;6.93;;
6093;SDS011;19964;42.060;24.700;2023-04-24T14:11:59;7.23;;;6.37;;
6093;SDS011;19964;42.060;24.700;2023-04-24T14:14:26;8.20;;;7.40;;
6093;SDS011;19964;42.060;24.700;2023-04-24T14:16:54;15.43;;;12.90;;
6093;SDS011;19964;42.060;24.700;2023-04-24T14:19:21;9.60;;;8.07;;
6093;SDS011;19964;42.060;24.700;2023-04-24T14:21:48;8.77;;;7.17;;
6093;SDS011;19964;42.060;24.700;2023-04-24T14:24:15;7.40;;;6.70;;
6093;SDS011;19964;42.060;24.700;2023-04-24T14:26:42;8.87;;;7.00;;
6093;SDS011;19964;42.060;24.700;2023-04-24T14:29:10;6.90;;;5.93;;
6093;SDS011;19964;42.060;24.700;2023-04-24T14:31:37;6.13;;;5.63;;
6093;SDS011;19964;42.060;24.700;2023-04-24T14:34:04;7.07;;;6.37;;
6093;SDS011;19964;42.060;24.700;2023-04-24T14:36:31;9.17;;;6.40;;
6093;SDS011;19964;42.060;24.700;2023-04-24T14:38:57;8.33;;;6.23;;
6093;SDS011;19964;42.060;24.700;2023-04-24T14:41:24;6.77;;;6.17;;